logo
Search for airport 
image banner adimage banner adimage banner ad
image banner ad

UUTW - VOLGA COUNTRY CLUB

Located in , Russian Federation

ICAO - , IATA -

Data provided by Airmate  

General information

Coordinates: N56°12'17" E34°39'60"
Elevation is 505 feet MSL.
Magnetic variation is 11° East
View others Airports in Tver Oblast

Operational data

Special qualification required
Current time UTC:
Current local time:
Weather at : - ( 0 km )
METAR: CYRQ 251603Z AUTO 22011G16KT 9SM FEW025 BKN041 BKN050 OVC066 21/17 A2987 RMK SLP118 DENSITY ALT 1100FT
View NOTAMs / SUP AIP / TFR affecting this airport [VIEW]
Communications frequencies: [VIEW]

Runways:

Airport contact information

Address: Russian Federation

Satellite view of UUTW